Time;durP1;ratioP1;P1;durP2;ratioP2;P2;SDS_P1;SDS_P2;PMS_P1;PMS_P2;Temp;Humidity;BMP_temperature;BMP_pressure;BME280_temperature;BME280_humidity;BME280_pressure;Samples;Min_cycle;Max_cycle;Signal;HPM_P1;HPM_P2
2023/06/07 00:00:18;;;;;;;;;18.50;15.75;;;;;21.03;52.26;99035.09;5086033;27;45399;-76
2023/06/07 00:02:44;;;;;;;;;22.25;18.50;;;;;21.00;51.76;99021.09;5089015;27;45490;-76
2023/06/07 00:05:10;;;;;;;;;14.00;14.00;;;;;20.97;51.43;99030.25;5096465;27;45382;-76
2023/06/07 00:07:35;;;;;;;;;14.50;14.50;;;;;20.92;52.02;99035.16;5090321;27;46143;-76
2023/06/07 00:10:02;;;;;;;;;10.50;9.50;;;;;20.86;52.45;99032.97;5094743;27;45407;-76
2023/06/07 00:12:28;;;;;;;;;16.25;16.25;;;;;20.82;52.86;99032.38;5093078;27;45303;-76
2023/06/07 00:14:54;;;;;;;;;19.75;16.75;;;;;20.80;52.72;99034.34;5075835;27;45274;-77
2023/06/07 00:17:19;;;;;;;;;16.75;14.00;;;;;20.78;53.18;99033.59;5092371;27;45477;-76
2023/06/07 00:19:45;;;;;;;;;19.50;18.00;;;;;20.79;52.93;99031.78;5094491;27;45451;-76
2023/06/07 00:22:12;;;;;;;;;18.75;17.00;;;;;20.76;53.92;99027.56;5094107;27;45572;-76
2023/06/07 00:24:38;;;;;;;;;13.50;13.50;;;;;20.70;53.27;99024.53;5089855;27;45457;-76
2023/06/07 00:27:04;;;;;;;;;18.75;17.75;;;;;20.65;53.71;99029.41;5110268;27;47887;-76
2023/06/07 00:29:30;;;;;;;;;19.00;17.75;;;;;20.60;54.00;99024.44;5088625;27;45471;-76
2023/06/07 00:31:55;;;;;;;;;19.50;17.50;;;;;20.57;54.20;99027.38;5077415;27;45439;-76
2023/06/07 00:34:21;;;;;;;;;17.25;17.25;;;;;20.55;53.78;99029.31;5093463;27;45481;-76
2023/06/07 00:36:47;;;;;;;;;17.00;16.25;;;;;20.52;54.37;99040.28;5095474;27;45493;-76
2023/06/07 00:39:12;;;;;;;;;16.50;14.75;;;;;20.52;54.11;99040.28;5091413;27;45393;-76
2023/06/07 00:41:38;;;;;;;;;14.00;14.00;;;;;20.48;54.33;99039.69;5096099;27;45546;-76
2023/06/07 00:44:03;;;;;;;;;19.00;17.50;;;;;20.44;54.23;99037.41;5094525;27;45286;-76
2023/06/07 00:46:30;;;;;;;;;17.75;16.00;;;;;20.40;54.19;99035.94;5076839;27;45385;-76
2023/06/07 00:48:57;;;;;;;;;20.00;17.75;;;;;20.37;54.35;99037.03;5094177;27;45450;-76
2023/06/07 00:51:23;;;;;;;;;18.75;16.00;;;;;20.33;54.11;99040.06;5095727;27;45403;-77
2023/06/07 00:53:51;;;;;;;;;20.75;16.25;;;;;20.28;54.84;99043.09;5092852;27;45541;-76
2023/06/07 00:56:17;;;;;;;;;14.50;14.25;;;;;20.27;55.21;99049.44;5072669;27;47380;-76
2023/06/07 00:58:46;;;;;;;;;18.75;17.25;;;;;20.25;55.02;99048.72;5082796;27;45521;-76
2023/06/07 01:01:12;;;;;;;;;18.25;17.00;;;;;20.26;55.31;99052.25;5089391;27;45759;-76
2023/06/07 01:03:38;;;;;;;;;16.75;15.75;;;;;20.25;55.26;99048.72;5084168;27;45373;-76
2023/06/07 01:06:05;;;;;;;;;16.75;16.75;;;;;20.23;55.26;99048.00;5076645;27;45448;-76
2023/06/07 01:08:31;;;;;;;;;19.50;16.50;;;;;20.20;55.57;99046.41;5084948;27;45382;-76
2023/06/07 01:10:59;;;;;;;;;18.00;15.75;;;;;20.19;55.47;99049.22;5076462;27;45368;-76
2023/06/07 01:13:25;;;;;;;;;16.75;16.75;;;;;20.18;55.68;99050.19;5093679;27;45677;-76
2023/06/07 01:15:51;;;;;;;;;15.25;15.25;;;;;20.13;55.63;99047.00;5094991;27;45352;-76
2023/06/07 01:18:18;;;;;;;;;14.00;14.00;;;;;20.11;55.46;99051.63;5088685;27;45342;-76
2023/06/07 01:20:49;;;;;;;;;19.50;17.50;;;;;20.08;55.95;99052.75;5095373;27;45515;-76
2023/06/07 01:23:27;;;;;;;;;16.00;16.00;;;;;20.04;56.03;99050.44;5095362;27;45551;-76
2023/06/07 01:25:53;;;;;;;;;17.75;15.75;;;;;20.00;56.24;99046.31;5089067;27;45521;-76
2023/06/07 01:28:18;;;;;;;;;18.00;16.25;;;;;19.95;55.99;99048.47;5070803;27;45394;-76
2023/06/07 01:30:46;;;;;;;;;17.00;16.00;;;;;19.91;55.91;99049.72;5093940;27;45389;-76
2023/06/07 01:33:12;;;;;;;;;17.75;17.75;;;;;19.89;56.32;99051.66;5074111;27;45738;-76
2023/06/07 01:35:39;;;;;;;;;17.25;15.75;;;;;19.89;56.39;99055.19;5094405;27;45487;-76
2023/06/07 01:38:05;;;;;;;;;18.00;16.75;;;;;19.89;56.04;99049.84;5086593;27;45599;-76
2023/06/07 01:40:33;;;;;;;;;14.75;14.50;;;;;19.86;56.83;99053.59;5087738;27;45545;-76
2023/06/07 01:42:59;;;;;;;;;19.00;19.00;;;;;19.84;56.31;99052.88;5093094;27;45594;-77
2023/06/07 01:45:25;;;;;;;;;14.75;14.75;;;;;19.82;56.39;99053.97;5082450;27;46441;-76
2023/06/07 01:47:50;;;;;;;;;14.75;14.25;;;;;19.81;56.82;99053.09;5086379;27;45807;-77
2023/06/07 01:50:22;;;;;;;;;15.25;14.50;;;;;19.82;56.45;99052.13;5092839;27;45597;-77
2023/06/07 01:52:47;;;;;;;;;17.50;17.50;;;;;19.84;56.93;99052.88;5086860;27;45571;-77
2023/06/07 01:55:13;;;;;;;;;17.50;16.00;;;;;19.86;56.82;99055.44;5083676;27;46642;-76
2023/06/07 01:57:45;;;;;;;;;18.75;17.25;;;;;19.86;56.74;99050.94;5093050;27;45536;-77
2023/06/07 02:00:50;;;;;;;;;18.50;17.50;;;;;19.88;56.42;99055.31;5087807;27;45344;-77
2023/06/07 02:03:22;;;;;;;;;22.75;18.00;;;;;19.87;57.01;99049.09;5091139;27;45511;-76
2023/06/07 02:05:52;;;;;;;;;18.75;17.75;;;;;19.84;56.47;99047.53;5091003;27;45470;-76
2023/06/07 02:08:34;;;;;;;;;18.25;18.25;;;;;19.84;56.63;99052.03;5098209;27;45459;-76
2023/06/07 02:11:02;;;;;;;;;17.25;17.25;;;;;19.82;57.04;99044.09;5093797;27;45471;-77
2023/06/07 02:13:34;;;;;;;;;17.50;17.00;;;;;19.83;57.32;99051.16;5082390;27;45544;-76
2023/06/07 02:16:00;;;;;;;;;21.00;18.00;;;;;19.85;57.09;99053.72;5097815;27;45399;-76
2023/06/07 02:18:25;;;;;;;;;21.00;19.75;;;;;19.86;57.52;99047.41;5092788;27;45381;-76
2023/06/07 02:20:51;;;;;;;;;17.50;16.75;;;;;19.86;57.01;99040.22;5097842;27;46055;-76
2023/06/07 02:23:16;;;;;;;;;20.00;17.75;;;;;19.89;57.68;99043.63;5076653;27;45562;-76
2023/06/07 02:25:42;;;;;;;;;18.50;18.00;;;;;19.90;57.17;99038.16;5089248;27;46310;-76
2023/06/07 02:28:07;;;;;;;;;17.00;17.00;;;;;19.91;57.66;99039.03;5094545;27;45508;-76
2023/06/07 02:30:33;;;;;;;;;17.75;17.25;;;;;19.89;57.46;99043.63;5088792;27;45476;-76
2023/06/07 02:33:00;;;;;;;;;19.25;19.25;;;;;19.89;57.33;99046.31;5093709;27;45453;-76
2023/06/07 02:35:26;;;;;;;;;20.25;16.25;;;;;19.90;57.17;99048.88;5097469;27;46676;-76
2023/06/07 02:37:52;;;;;;;;;20.75;18.50;;;;;19.91;57.55;99053.25;5077283;27;45770;-76
2023/06/07 02:40:17;;;;;;;;;19.75;18.50;;;;;19.91;58.31;99050.56;5093985;27;45560;-76
2023/06/07 02:42:47;;;;;;;;;21.25;20.00;;;;;19.89;57.52;99040.97;5093839;27;45565;-76
2023/06/07 02:45:13;;;;;;;;;19.50;19.50;;;;;19.86;58.15;99044.72;5092764;27;45476;-76
2023/06/07 02:47:39;;;;;;;;;16.25;15.50;;;;;19.82;57.78;99049.47;5093481;27;45385;-76
2023/06/07 02:50:06;;;;;;;;;19.25;19.00;;;;;19.79;58.31;99049.69;5092938;27;45505;-76
2023/06/07 02:52:33;;;;;;;;;18.75;17.00;;;;;19.74;57.94;99048.38;5078663;27;45399;-75
2023/06/07 02:54:59;;;;;;;;;17.25;17.25;;;;;19.70;58.14;99052.25;5096501;27;46094;-76
2023/06/07 02:57:24;;;;;;;;;18.00;17.50;;;;;19.65;58.73;99052.63;5094848;27;45394;-76
2023/06/07 02:59:52;;;;;;;;;17.50;16.25;;;;;19.60;58.86;99051.28;5096983;27;45338;-76
2023/06/07 03:02:18;;;;;;;;;15.25;14.75;;;;;19.56;58.91;99049.81;5094738;27;45472;-76
2023/06/07 03:04:43;;;;;;;;;21.50;19.00;;;;;19.50;58.83;99048.47;5083707;27;45437;-76
2023/06/07 03:07:09;;;;;;;;;21.25;18.50;;;;;19.43;59.30;99058.78;5094171;27;45534;-76
2023/06/07 03:09:34;;;;;;;;;19.00;18.50;;;;;19.38;59.65;99052.91;5087414;27;45409;-77
2023/06/07 03:12:00;;;;;;;;;19.50;18.00;;;;;19.33;59.20;99056.91;5094957;27;45508;-76
2023/06/07 03:14:25;;;;;;;;;16.25;16.25;;;;;19.32;59.94;99061.41;5096288;27;46335;-68
2023/06/07 03:16:52;;;;;;;;;21.00;19.75;;;;;19.36;60.12;99051.31;5096299;27;45449;-68
2023/06/07 03:19:18;;;;;;;;;21.75;20.75;;;;;19.43;59.67;99053.41;5093988;27;45575;-68
2023/06/07 03:21:44;;;;;;;;;17.75;17.75;;;;;19.44;59.26;99049.75;5094665;27;45350;-69
2023/06/07 03:24:12;;;;;;;;;20.00;18.25;;;;;19.48;58.79;99051.22;5091483;27;47499;-68
2023/06/07 03:26:38;;;;;;;;;20.50;18.75;;;;;19.52;59.21;99054.53;5095028;27;45511;-69
2023/06/07 03:29:03;;;;;;;;;20.25;18.25;;;;;19.57;58.93;99056.88;5083860;27;45524;-68
2023/06/07 03:31:29;;;;;;;;;15.75;14.75;;;;;19.58;58.88;99064.78;5094970;27;45388;-69
2023/06/07 03:33:55;;;;;;;;;17.25;16.25;;;;;19.61;58.34;99064.50;5086827;27;45472;-69
2023/06/07 03:36:21;;;;;;;;;21.25;19.75;;;;;19.63;59.00;99056.38;5087366;27;45679;-69
2023/06/07 03:38:47;;;;;;;;;19.50;17.25;;;;;19.61;58.54;99061.00;5071743;27;45420;-68
2023/06/07 03:41:12;;;;;;;;;20.00;20.00;;;;;19.60;58.42;99056.63;5095717;27;45380;-69
2023/06/07 03:43:38;;;;;;;;;20.50;20.50;;;;;19.58;58.45;99058.56;5083814;27;46306;-68
2023/06/07 03:46:03;;;;;;;;;18.75;18.25;;;;;19.51;57.97;99053.69;5082633;27;45445;-69
2023/06/07 03:48:28;;;;;;;;;28.50;20.75;;;;;19.49;58.94;99054.75;5091201;27;45463;-68
2023/06/07 03:50:54;;;;;;;;;21.00;18.25;;;;;19.46;58.93;99052.31;5095832;27;45388;-68
2023/06/07 03:53:19;;;;;;;;;18.50;15.75;;;;;19.46;59.13;99063.84;5092312;27;46290;-68
2023/06/07 03:55:47;;;;;;;;;23.75;21.25;;;;;19.45;59.06;99062.16;5093598;27;45503;-68
2023/06/07 03:58:13;;;;;;;;;19.75;18.25;;;;;19.45;58.81;99067.50;5089098;27;45500;-68
2023/06/07 04:00:39;;;;;;;;;20.00;18.75;;;;;19.44;58.95;99063.13;5095531;27;45477;-68
2023/06/07 04:03:04;;;;;;;;;22.25;15.50;;;;;19.44;58.71;99057.78;5089138;27;46442;-68
2023/06/07 04:05:30;;;;;;;;;21.50;18.75;;;;;19.45;58.58;99072.00;5095386;27;45633;-68
2023/06/07 04:07:59;;;;;;;;;19.00;19.00;;;;;19.45;58.95;99072.84;5077209;27;45530;-68
2023/06/07 04:10:24;;;;;;;;;23.50;20.50;;;;;19.48;59.11;99074.44;5088846;27;45547;-68
2023/06/07 04:12:50;;;;;;;;;17.50;16.50;;;;;19.51;58.50;99075.09;5091132;27;46394;-68
2023/06/07 04:15:15;;;;;;;;;16.75;16.75;;;;;19.56;58.39;99079.25;5088952;27;45450;-68
2023/06/07 04:17:41;;;;;;;;;19.75;18.25;;;;;19.57;58.67;99078.28;5092331;27;45768;-67
2023/06/07 04:20:07;;;;;;;;;18.25;18.25;;;;;19.57;58.58;99076.44;5087700;27;45437;-68
2023/06/07 04:22:35;;;;;;;;;18.00;16.25;;;;;19.59;58.72;99076.34;5092979;27;45489;-67
2023/06/07 04:25:01;;;;;;;;;22.00;20.00;;;;;19.62;58.98;99073.38;5082123;27;45472;-67
2023/06/07 04:27:29;;;;;;;;;20.50;19.00;;;;;19.64;58.57;99083.00;5092509;27;45415;-67
2023/06/07 04:29:55;;;;;;;;;20.75;17.25;;;;;19.67;58.61;99079.25;5083154;27;45375;-67
2023/06/07 04:32:20;;;;;;;;;20.75;20.00;;;;;19.72;58.45;99085.94;5093060;27;45478;-67
2023/06/07 04:34:46;;;;;;;;;21.25;18.75;;;;;19.76;58.65;99086.56;5085095;27;45443;-68
2023/06/07 04:37:12;;;;;;;;;21.00;19.00;;;;;19.79;58.15;99086.31;5078573;27;45757;-68
2023/06/07 04:39:40;;;;;;;;;21.00;19.25;;;;;19.81;58.67;99079.00;5089513;27;45457;-68
2023/06/07 04:42:07;;;;;;;;;22.00;19.50;;;;;19.86;58.54;99082.19;5090666;27;45583;-68
2023/06/07 04:44:32;;;;;;;;;20.00;18.00;;;;;19.90;58.34;99089.00;5086432;27;45432;-68
2023/06/07 04:47:01;;;;;;;;;19.75;19.75;;;;;19.96;58.62;99090.31;5085901;27;45376;-68
2023/06/07 04:49:27;;;;;;;;;18.75;17.50;;;;;20.00;58.20;99083.75;5073558;27;45508;-68
2023/06/07 04:51:52;;;;;;;;;19.50;18.25;;;;;20.04;58.74;99083.41;5083345;27;47657;-68
2023/06/07 04:54:19;;;;;;;;;21.75;19.25;;;;;20.09;58.26;99083.91;5083220;27;45521;-68
2023/06/07 04:56:45;;;;;;;;;20.00;20.00;;;;;20.13;58.16;99081.81;5089626;27;45432;-68
2023/06/07 04:59:10;;;;;;;;;14.75;13.50;;;;;20.14;58.11;99081.69;5087142;27;45513;-68
2023/06/07 05:01:36;;;;;;;;;19.33;18.00;;;;;20.18;58.04;99084.97;5084510;27;46054;-68
2023/06/07 05:04:02;;;;;;;;;22.25;21.00;;;;;20.23;57.98;99082.78;5085283;27;45432;-68
2023/06/07 05:06:28;;;;;;;;;21.00;20.50;;;;;20.24;57.54;99081.81;5089035;27;45448;-66
2023/06/07 05:08:55;;;;;;;;;19.75;19.25;;;;;20.21;57.18;99085.59;5088137;27;45380;-66
2023/06/07 05:11:20;;;;;;;;;15.50;12.75;;;;;20.16;57.45;99082.41;5089365;27;45936;-66
2023/06/07 05:13:46;;;;;;;;;18.00;17.75;;;;;20.08;57.74;99074.16;5087844;27;45423;-66
2023/06/07 05:16:16;;;;;;;;;22.50;21.25;;;;;20.03;57.42;99088.88;5094443;27;45481;-66
2023/06/07 05:18:49;;;;;;;;;20.25;19.50;;;;;19.93;57.64;99087.91;5089540;27;45555;-65
2023/06/07 05:21:15;;;;;;;;;21.75;18.25;;;;;19.82;57.93;99078.03;5089355;27;46222;-65
2023/06/07 05:23:41;;;;;;;;;18.25;17.50;;;;;19.79;58.32;99083.63;5089094;27;45531;-65
2023/06/07 05:26:07;;;;;;;;;20.00;18.00;;;;;19.79;58.78;99083.63;5090654;27;45414;-65
2023/06/07 05:28:34;;;;;;;;;19.75;19.75;;;;;19.81;58.61;99074.50;5072972;27;45524;-64
2023/06/07 05:30:59;;;;;;;;;21.25;21.25;;;;;19.86;58.47;99080.38;5092386;27;45486;-64
2023/06/07 05:33:25;;;;;;;;;23.25;19.25;;;;;19.86;58.64;99079.50;5092290;27;45345;-65
2023/06/07 05:35:51;;;;;;;;;21.75;19.50;;;;;19.83;58.78;99079.75;5093812;27;45420;-66
2023/06/07 05:38:16;;;;;;;;;19.75;19.50;;;;;19.82;58.67;99078.03;5090489;27;45464;-66
2023/06/07 05:40:42;;;;;;;;;25.00;22.25;;;;;19.82;58.60;99089.59;5092884;27;46174;-66
2023/06/07 05:43:08;;;;;;;;;22.25;20.75;;;;;19.89;58.50;99089.97;5088273;27;45432;-66
2023/06/07 05:45:33;;;;;;;;;17.00;16.50;;;;;19.91;58.25;99093.38;5093756;27;45438;-68
2023/06/07 05:47:59;;;;;;;;;19.50;17.50;;;;;19.94;58.57;99093.13;5087197;27;45451;-65
2023/06/07 05:50:25;;;;;;;;;24.67;24.33;;;;;19.97;58.66;99092.03;5092595;27;45491;-65
2023/06/07 05:52:57;;;;;;;;;24.25;24.25;;;;;19.99;58.15;99095.44;5088669;27;45438;-67
2023/06/07 05:55:26;;;;;;;;;23.50;22.25;;;;;20.02;58.67;99090.69;5092576;27;45312;-65
2023/06/07 05:57:53;;;;;;;;;21.00;20.50;;;;;20.07;58.19;99098.38;5088718;27;45479;-65
2023/06/07 06:00:18;;;;;;;;;19.25;18.50;;;;;20.11;58.56;99098.00;5078827;27;45532;-66
2023/06/07 06:02:46;;;;;;;;;19.00;19.00;;;;;20.14;58.23;99100.44;5085879;27;45404;-65
2023/06/07 06:05:17;;;;;;;;;23.25;22.25;;;;;20.19;58.17;99094.72;5084786;27;45471;-66
2023/06/07 06:07:43;;;;;;;;;25.50;23.00;;;;;20.25;58.73;99096.06;5070638;27;45497;-66
2023/06/07 06:10:09;;;;;;;;;24.00;19.75;;;;;20.30;58.41;99092.03;5087973;27;45529;-65
2023/06/07 06:12:34;;;;;;;;;22.00;19.75;;;;;20.34;58.08;99093.47;5090826;27;45532;-65
2023/06/07 06:15:00;;;;;;;;;23.00;22.25;;;;;20.39;58.64;99093.16;5085314;27;45376;-66
2023/06/07 06:17:26;;;;;;;;;24.00;23.00;;;;;20.43;58.87;99094.63;5090074;27;45596;-66
2023/06/07 06:19:51;;;;;;;;;21.50;21.50;;;;;20.49;58.22;99088.75;5088769;27;46491;-66
2023/06/07 06:22:16;;;;;;;;;28.00;27.00;;;;;20.55;58.07;99096.28;5090335;27;45317;-66
2023/06/07 06:24:42;;;;;;;;;21.50;20.25;;;;;20.58;57.77;99100.53;5088682;27;45369;-66
2023/06/07 06:27:09;;;;;;;;;24.75;23.25;;;;;20.63;57.89;99095.66;5091919;27;45500;-65
2023/06/07 06:29:34;;;;;;;;;22.75;22.25;;;;;20.65;57.87;99093.69;5090764;27;46615;-65
2023/06/07 06:32:00;;;;;;;;;26.33;25.33;;;;;20.68;58.04;99099.66;5092887;27;45414;-66
2023/06/07 06:34:28;;;;;;;;;25.25;21.50;;;;;20.74;58.46;99095.63;5090507;27;45456;-65
2023/06/07 06:36:53;;;;;;;;;23.75;22.75;;;;;20.78;58.21;99100.59;5092664;27;45386;-66
2023/06/07 06:39:19;;;;;;;;;19.75;19.75;;;;;20.84;57.65;99105.47;5090169;27;46511;-66
2023/06/07 06:41:45;;;;;;;;;24.67;21.33;;;;;20.90;57.66;99104.13;5092454;27;45387;-65
2023/06/07 06:44:11;;;;;;;;;25.00;23.00;;;;;20.95;57.27;99101.06;5084585;27;45397;-65
2023/06/07 06:46:36;;;;;;;;;21.25;19.00;;;;;20.98;57.08;99100.78;5086972;27;45357;-66
2023/06/07 06:49:02;;;;;;;;;18.00;16.50;;;;;21.04;57.55;99090.41;5086307;27;45597;-66
2023/06/07 06:51:30;;;;;;;;;19.75;16.00;;;;;21.10;57.34;99097.94;5074500;28;45350;-66
2023/06/07 06:53:55;;;;;;;;;21.25;19.50;;;;;21.18;57.55;99105.34;5083652;27;45498;-65
2023/06/07 06:56:21;;;;;;;;;26.67;25.33;;;;;21.25;56.76;99114.63;5074529;28;45843;-66
2023/06/07 06:58:46;;;;;;;;;23.00;22.00;;;;;21.27;56.77;99103.75;5084261;27;45411;-65
2023/06/07 07:01:15;;;;;;;;;25.67;25.00;;;;;21.30;56.62;99109.69;5076935;27;45396;-66
2023/06/07 07:03:40;;;;;;;;;24.50;23.50;;;;;21.32;56.93;99112.25;5075348;27;45545;-66
2023/06/07 07:06:07;;;;;;;;;27.33;27.00;;;;;21.36;56.47;99114.56;5090560;27;45503;-66
2023/06/07 07:08:34;;;;;;;;;21.67;20.33;;;;;21.38;56.22;99111.75;5072762;28;46172;-66
2023/06/07 07:11:00;;;;;;;;;23.75;22.25;;;;;21.40;56.13;99109.78;5088456;27;45337;-66
2023/06/07 07:13:25;;;;;;;;;27.25;23.50;;;;;21.43;56.01;99109.53;5090331;27;45484;-65
2023/06/07 07:15:51;;;;;;;;;20.25;20.00;;;;;21.49;56.00;99109.00;5074933;27;45318;-66
2023/06/07 07:18:16;;;;;;;;;22.50;21.50;;;;;21.56;55.88;99107.50;5091261;27;45414;-66
2023/06/07 07:20:42;;;;;;;;;22.25;20.00;;;;;21.64;55.15;99104.13;5092862;27;45466;-67
2023/06/07 07:23:07;;;;;;;;;19.00;19.00;;;;;21.68;54.77;99108.28;5092243;27;45412;-66
2023/06/07 07:25:33;;;;;;;;;21.50;20.50;;;;;21.71;54.85;99103.50;5080088;27;45656;-66
2023/06/07 07:27:58;;;;;;;;;18.25;17.25;;;;;21.76;54.84;99103.09;5092165;27;46160;-65
2023/06/07 07:30:24;;;;;;;;;24.00;22.75;;;;;21.81;55.35;99108.91;5074228;28;45481;-66
2023/06/07 07:32:49;;;;;;;;;24.00;22.50;;;;;21.86;55.65;99109.38;5090217;27;45480;-66
2023/06/07 07:35:15;;;;;;;;;23.50;21.50;;;;;21.86;54.84;99102.16;5096147;27;45530;-66
2023/06/07 07:37:40;;;;;;;;;22.25;22.25;;;;;21.89;54.69;99104.59;5093521;27;47327;-66
2023/06/07 07:40:09;;;;;;;;;24.75;22.50;;;;;21.90;54.90;99100.91;5089794;27;45382;-65
2023/06/07 07:42:35;;;;;;;;;19.25;19.25;;;;;21.94;54.53;99107.75;5079420;27;45563;-66
2023/06/07 07:45:00;;;;;;;;;27.00;22.00;;;;;21.98;55.10;99105.59;5086824;27;45427;-65
2023/06/07 07:47:26;;;;;;;;;23.25;22.75;;;;;21.96;55.27;99099.53;5106598;27;48352;-65
2023/06/07 07:49:55;;;;;;;;;22.33;21.33;;;;;21.94;55.19;99105.06;5094277;27;45431;-65
2023/06/07 07:52:20;;;;;;;;;23.00;19.33;;;;;21.91;55.31;99094.56;5093960;27;45656;-66
2023/06/07 07:54:46;;;;;;;;;27.25;25.25;;;;;21.89;55.40;99104.59;5090216;27;45363;-66
2023/06/07 07:57:12;;;;;;;;;25.25;23.75;;;;;21.93;54.91;99106.03;5093983;27;45779;-66
2023/06/07 07:59:38;;;;;;;;;22.75;22.75;;;;;21.93;55.14;99103.34;5093182;27;45452;-65
2023/06/07 08:02:03;;;;;;;;;24.25;23.25;;;;;21.92;54.86;99101.66;5076064;27;45642;-65
2023/06/07 08:04:29;;;;;;;;;23.50;23.50;;;;;21.93;54.90;99105.19;5073692;27;45593;-66
2023/06/07 08:06:55;;;;;;;;;24.75;21.50;;;;;21.99;54.90;99101.94;5073596;27;45491;-67
2023/06/07 08:09:20;;;;;;;;;25.50;21.50;;;;;22.03;54.44;99099.88;5086487;27;45395;-66
2023/06/07 08:11:47;;;;;;;;;26.00;25.25;;;;;22.09;54.50;99100.22;5089493;27;45455;-66
2023/06/07 08:14:13;;;;;;;;;25.75;25.25;;;;;22.17;53.57;99097.69;5072621;27;45738;-66
2023/06/07 08:16:38;;;;;;;;;24.25;23.00;;;;;22.20;53.82;99101.94;5095122;27;46165;-66
2023/06/07 08:19:06;;;;;;;;;25.25;24.00;;;;;22.21;53.58;99092.91;5073486;27;45497;-66
2023/06/07 08:21:33;;;;;;;;;19.75;17.00;;;;;22.23;52.95;99093.59;5092339;27;45433;-66
2023/06/07 08:23:59;;;;;;;;;20.25;17.50;;;;;22.24;52.71;99095.31;5091467;27;45321;-65
2023/06/07 08:26:24;;;;;;;;;24.25;22.00;;;;;22.20;52.90;99086.66;5075105;27;46374;-66
2023/06/07 08:28:50;;;;;;;;;22.25;21.25;;;;;22.16;52.68;99079.00;5092299;27;45392;-66
2023/06/07 08:31:15;;;;;;;;;23.00;22.50;;;;;22.17;52.65;99084.25;5094847;27;45453;-66
2023/06/07 08:33:41;;;;;;;;;24.25;23.25;;;;;22.21;52.44;99085.69;5074342;27;45530;-65
2023/06/07 08:36:06;;;;;;;;;21.00;20.50;;;;;22.26;52.98;99077.22;5094343;27;46077;-66
2023/06/07 08:38:31;;;;;;;;;25.75;24.25;;;;;22.29;53.05;99083.16;5089142;27;45487;-65
2023/06/07 08:40:58;;;;;;;;;23.00;19.00;;;;;22.36;52.94;99085.31;5092374;27;45408;-65
2023/06/07 08:43:25;;;;;;;;;22.50;20.50;;;;;22.42;52.91;99080.25;5072224;28;45790;-65
2023/06/07 08:45:50;;;;;;;;;23.25;21.50;;;;;22.47;52.30;99075.28;5098880;27;47487;-66
2023/06/07 08:48:16;;;;;;;;;20.75;20.75;;;;;22.51;51.37;99076.72;5089902;27;45443;-65
2023/06/07 08:50:45;;;;;;;;;24.75;23.75;;;;;22.56;51.71;99073.63;5092675;27;45463;-65
2023/06/07 08:53:14;;;;;;;;;22.00;19.50;;;;;22.58;51.94;99075.19;5088239;27;45527;-66
2023/06/07 08:55:41;;;;;;;;;20.00;18.75;;;;;22.62;52.71;99073.09;5094171;27;45428;-66
2023/06/07 08:58:07;;;;;;;;;25.00;21.50;;;;;22.63;52.82;99064.84;5087332;27;45448;-66
2023/06/07 09:00:32;;;;;;;;;26.00;25.75;;;;;22.64;53.50;99063.88;5092483;27;45337;-66
2023/06/07 09:02:58;;;;;;;;;23.25;20.00;;;;;22.69;54.17;99059.91;5094686;27;45562;-66
2023/06/07 09:05:24;;;;;;;;;23.00;21.25;;;;;22.72;54.61;99055.13;5094563;27;45594;-66
2023/06/07 09:07:50;;;;;;;;;19.50;19.00;;;;;22.75;55.58;99046.78;5094928;27;45384;-66
2023/06/07 09:10:17;;;;;;;;;21.00;19.50;;;;;22.81;53.99;99043.56;5095019;27;45537;-66
2023/06/07 09:12:47;;;;;;;;;24.50;20.00;;;;;22.90;54.98;99041.88;5094834;27;45485;-66
2023/06/07 09:15:18;;;;;;;;;23.00;19.00;;;;;22.98;55.06;99053.59;5072343;28;47155;-66
2023/06/07 09:18:01;;;;;;;;;20.50;19.75;;;;;23.05;55.54;99039.59;5068826;27;45712;-67
2023/06/07 09:20:31;;;;;;;;;20.75;20.25;;;;;23.09;55.70;99036.50;5094920;27;45414;-66
2023/06/07 09:23:00;;;;;;;;;21.75;20.00;;;;;23.16;56.10;99042.97;5094824;27;45380;-66
2023/06/07 09:25:27;;;;;;;;;21.75;21.75;;;;;23.20;55.50;99043.56;5094368;27;45591;-66
2023/06/07 09:27:54;;;;;;;;;22.00;22.00;;;;;23.24;55.40;99024.31;5094205;27;45522;-66
2023/06/07 09:30:19;;;;;;;;;20.00;19.75;;;;;23.30;55.24;99026.41;5094529;27;45376;-66
2023/06/07 09:32:45;;;;;;;;;21.75;18.75;;;;;23.39;54.95;99023.84;5076260;27;45418;-66
2023/06/07 09:35:15;;;;;;;;;10.25;9.50;;;;;23.46;54.69;99024.97;5075769;27;45408;-67
2023/06/07 09:37:51;;;;;;;;;20.75;16.75;;;;;23.51;53.80;99015.50;5093841;27;45463;-66
2023/06/07 09:40:17;;;;;;;;;19.00;17.50;;;;;23.57;53.63;99016.75;5093793;27;45454;-66
2023/06/07 09:42:43;;;;;;;;;23.75;21.75;;;;;23.63;54.47;99011.63;5093205;27;45446;-66
2023/06/07 09:45:14;;;;;;;;;17.75;17.00;;;;;23.70;53.65;99005.66;5094012;27;45555;-66
2023/06/07 09:47:41;;;;;;;;;23.75;21.75;;;;;23.74;53.78;99002.53;5075730;27;45519;-66
2023/06/07 09:50:09;;;;;;;;;18.50;18.50;;;;;23.82;54.00;99001.78;5075851;27;45476;-66
2023/06/07 09:52:34;;;;;;;;;20.50;18.50;;;;;23.88;54.03;99003.88;5093861;27;45310;-66
2023/06/07 09:55:02;;;;;;;;;21.25;20.25;;;;;23.94;52.58;99003.31;5075230;27;48135;-66
2023/06/07 09:57:30;;;;;;;;;16.50;16.50;;;;;24.00;51.84;99005.38;5075209;27;45414;-67
2023/06/07 10:00:16;;;;;;;;;20.00;20.00;;;;;24.04;50.40;98992.47;5075395;27;45366;-66
2023/06/07 10:02:45;;;;;;;;;20.50;17.50;;;;;24.10;50.83;98999.97;5093478;27;45461;-66
2023/06/07 10:05:13;;;;;;;;;20.75;20.75;;;;;24.15;51.77;98986.88;5093663;27;46436;-67
2023/06/07 10:07:44;;;;;;;;;23.50;23.25;;;;;24.23;51.37;98984.28;5094172;27;45329;-66
2023/06/07 10:10:12;;;;;;;;;21.50;19.75;;;;;24.31;50.08;98985.25;5093958;27;45314;-66
2023/06/07 10:12:40;;;;;;;;;20.00;17.75;;;;;24.38;49.64;98993.56;5094101;27;45380;-66
2023/06/07 10:15:12;;;;;;;;;21.25;21.25;;;;;24.43;51.01;98996.66;5093740;27;46141;-66
2023/06/07 10:18:05;;;;;;;;;18.50;17.75;;;;;24.49;51.14;98981.72;5095060;27;45445;-66
2023/06/07 10:20:38;;;;;;;;;21.50;20.00;;;;;24.54;51.11;98976.72;5079158;27;45406;-66
2023/06/07 10:23:05;;;;;;;;;20.50;20.00;;;;;24.61;51.64;98978.66;5079073;27;45883;-66
2023/06/07 10:25:45;;;;;;;;;24.00;23.25;;;;;24.70;51.67;98974.19;5097377;27;45383;-66
2023/06/07 10:28:11;;;;;;;;;18.25;16.00;;;;;24.75;51.81;98966.50;5097288;27;45455;-66
2023/06/07 10:30:40;;;;;;;;;18.00;18.00;;;;;24.79;51.35;98975.13;5097988;27;45328;-66
2023/06/07 10:33:07;;;;;;;;;19.75;17.50;;;;;24.87;51.95;98975.19;5097864;27;45377;-66
2023/06/07 10:35:34;;;;;;;;;19.75;18.75;;;;;24.94;50.83;98973.59;5097613;27;46254;-66
2023/06/07 10:37:59;;;;;;;;;21.00;20.25;;;;;25.03;50.72;98970.78;5078790;27;45501;-66
2023/06/07 10:40:25;;;;;;;;;22.50;19.50;;;;;25.10;50.43;98975.56;5097250;27;45946;-66
2023/06/07 10:42:52;;;;;;;;;19.75;19.75;;;;;25.12;50.46;98970.88;5078931;27;45614;-66
2023/06/07 10:45:19;;;;;;;;;22.25;22.25;;;;;25.17;50.00;98953.19;5079208;27;46397;-66
2023/06/07 10:47:47;;;;;;;;;20.50;20.50;;;;;25.22;49.04;98966.22;5097455;27;45363;-66
2023/06/07 10:50:27;;;;;;;;;22.50;19.50;;;;;25.25;50.25;98955.94;5097412;27;45316;-66
2023/06/07 10:53:00;;;;;;;;;18.75;17.75;;;;;25.32;49.02;98961.53;5084399;27;45496;-66
2023/06/07 10:55:31;;;;;;;;;21.00;19.00;;;;;25.38;50.00;98953.66;5078588;27;46728;-67
2023/06/07 10:57:57;;;;;;;;;17.75;17.75;;;;;25.44;47.73;98954.03;5078218;27;45633;-66
2023/06/07 11:00:30;;;;;;;;;20.00;20.00;;;;;25.46;47.79;98963.69;5078609;27;45334;-66
2023/06/07 11:03:04;;;;;;;;;18.75;17.50;;;;;25.50;49.19;98956.09;5096766;27;45356;-66
2023/06/07 11:06:06;;;;;;;;;20.25;20.25;;;;;25.54;48.11;98957.47;5096818;27;46421;-66
2023/06/07 11:08:38;;;;;;;;;20.50;20.50;;;;;25.53;48.85;98937.72;5033023;28;45455;-67
2023/06/07 11:11:26;;;;;;;;;18.25;18.25;;;;;25.58;49.55;98942.66;5087002;27;45401;-66
2023/06/07 11:13:54;;;;;;;;;23.75;23.75;;;;;25.70;48.81;98944.06;5096739;27;45492;-67
2023/06/07 11:16:22;;;;;;;;;18.75;17.75;;;;;25.77;48.60;98950.53;5074897;27;45370;-66